Terminal Aerodrome Forecast
Issued by NWS

Home | Current Version | Previous Version | Graphics & Text | Print | Product List | Glossary On
Versions: 1 2 3 4 5 6 7 8 9 10 11 12 13
000
FTUS41 KCLE 261739
TAFFDY
TAF
KFDY 261739Z 2618/2718 27012KT P6SM BKN070
     FM262200 27012KT P6SM BKN050
      TEMPO 2622/2701 -SHRA
     FM270200 27010KT P6SM BKN100
     FM270800 28008KT P6SM SCT100=

USA.gov is the U.S. government's official web portal to all federal, state and local government web resources and services.